Time;durP1;ratioP1;P1;durP2;ratioP2;P2;SDS_P1;SDS_P2;PMS_P1;PMS_P2;Temp;Humidity;BMP_temperature;BMP_pressure;BME280_temperature;BME280_humidity;BME280_pressure;Samples;Min_cycle;Max_cycle;Signal;HPM_P1;HPM_P2
2021/04/04 00:01:37;;;;;;;29.77;5.87;;;7.00;99.90;;;;;;5016702;28;20188;-74
2021/04/04 00:04:04;;;;;;;34.43;6.83;;;7.10;99.90;;;;;;5016817;28;20165;-74
2021/04/04 00:06:30;;;;;;;23.83;6.00;;;7.20;99.90;;;;;;4998980;28;20264;-74
2021/04/04 00:08:55;;;;;;;37.20;6.40;;;7.40;99.90;;;;;;5016388;28;20271;-73
2021/04/04 00:11:21;;;;;;;33.83;6.97;;;7.40;99.90;;;;;;5015950;28;20180;-74
2021/04/04 00:13:47;;;;;;;29.80;6.53;;;7.50;99.90;;;;;;5016741;28;20172;-74
2021/04/04 00:16:13;;;;;;;42.83;7.73;;;7.70;99.90;;;;;;5015878;28;20250;-74
2021/04/04 00:18:41;;;;;;;23.27;5.97;;;7.70;99.90;;;;;;5015152;28;20256;-74
2021/04/04 00:21:07;;;;;;;25.17;6.55;;;7.70;99.90;;;;;;5016733;28;20287;-74
2021/04/04 00:23:33;;;;;;;29.73;6.13;;;7.80;99.90;;;;;;5016451;28;20188;-75
2021/04/04 00:25:58;;;;;;;32.30;7.15;;;7.80;99.90;;;;;;4998178;28;20181;-74
2021/04/04 00:28:24;;;;;;;30.02;7.53;;;7.80;99.90;;;;;;5016230;28;20181;-74
2021/04/04 00:30:50;;;;;;;33.53;7.72;;;7.90;99.90;;;;;;4998706;28;20208;-74
2021/04/04 00:33:16;;;;;;;30.55;7.63;;;8.00;99.90;;;;;;4998567;28;20179;-74
2021/04/04 00:35:41;;;;;;;28.35;6.93;;;8.00;99.90;;;;;;4998476;28;20200;-74
2021/04/04 00:38:09;;;;;;;27.73;7.03;;;8.00;99.90;;;;;;5016133;28;20177;-74
2021/04/04 00:40:36;;;;;;;37.75;9.15;;;8.00;99.90;;;;;;5014572;28;20187;-74
2021/04/04 00:43:02;;;;;;;30.77;8.55;;;7.90;99.90;;;;;;4998641;28;20175;-74
2021/04/04 00:45:33;;;;;;;37.20;7.82;;;8.00;99.90;;;;;;4998605;28;20263;-74
2021/04/04 00:47:58;;;;;;;41.30;8.55;;;8.10;99.90;;;;;;5015599;28;20173;-73
2021/04/04 00:50:26;;;;;;;27.88;8.40;;;8.10;99.90;;;;;;4998355;28;20235;-74
2021/04/04 00:52:53;;;;;;;44.97;7.93;;;8.20;99.90;;;;;;4997962;28;20263;-75
2021/04/04 00:55:19;;;;;;;33.85;7.57;;;8.20;99.90;;;;;;4998023;28;20656;-73
2021/04/04 00:57:45;;;;;;;31.30;7.68;;;8.30;99.90;;;;;;5015652;28;20192;-74
2021/04/04 01:00:16;;;;;;;25.50;6.03;;;8.30;99.90;;;;;;4997902;28;20687;-74
2021/04/04 01:02:42;;;;;;;29.55;6.70;;;8.30;99.90;;;;;;5015303;28;20172;-73
2021/04/04 01:05:11;;;;;;;26.92;7.13;;;8.30;99.90;;;;;;5015422;28;20524;-74
2021/04/04 01:07:37;;;;;;;30.85;7.35;;;8.40;99.90;;;;;;5013859;28;20255;-74
2021/04/04 01:10:08;;;;;;;27.67;7.25;;;8.40;99.90;;;;;;5015599;28;20524;-74
2021/04/04 01:12:42;;;;;;;20.38;7.00;;;8.40;99.90;;;;;;5015509;28;20783;-74
2021/04/04 01:15:16;;;;;;;23.10;7.13;;;8.30;99.90;;;;;;5015532;28;20164;-74
2021/04/04 01:17:44;;;;;;;24.67;7.05;;;8.40;99.90;;;;;;5009471;28;20234;-74
2021/04/04 01:20:28;;;;;;;35.25;7.40;;;8.40;99.90;;;;;;4997502;28;20181;-74
2021/04/04 01:23:17;;;;;;;25.08;6.63;;;8.40;99.90;;;;;;5015085;28;20187;-74
2021/04/04 01:26:02;;;;;;;27.90;6.82;;;8.50;99.90;;;;;;4998995;28;20531;-74
2021/04/04 01:28:32;;;;;;;24.13;7.00;;;8.50;99.90;;;;;;5014536;28;20173;-74
2021/04/04 01:30:58;;;;;;;48.78;8.10;;;8.50;99.90;;;;;;5014992;28;20531;-73
2021/04/04 01:33:25;;;;;;;30.83;7.30;;;8.50;99.90;;;;;;5015090;28;20176;-74
2021/04/04 01:35:56;;;;;;;36.10;7.72;;;8.60;99.90;;;;;;5014293;28;20204;-74
2021/04/04 01:38:26;;;;;;;30.23;7.70;;;8.70;99.90;;;;;;4997335;28;20173;-74
2021/04/04 01:41:09;;;;;;;26.45;7.68;;;8.70;99.90;;;;;;5014796;28;20691;-74
2021/04/04 01:43:38;;;;;;;25.95;6.72;;;8.70;99.90;;;;;;5015121;28;20169;-74
2021/04/04 01:46:04;;;;;;;26.42;6.53;;;8.70;99.90;;;;;;5014582;28;20173;-74
2021/04/04 01:48:31;;;;;;;27.38;6.20;;;8.70;99.90;;;;;;5015186;28;20260;-74
2021/04/04 01:50:58;;;;;;;43.40;6.70;;;8.60;99.90;;;;;;4996985;28;20180;-74
2021/04/04 01:53:24;;;;;;;43.38;7.15;;;8.50;99.90;;;;;;4996978;28;20676;-74
2021/04/04 01:55:50;;;;;;;31.30;6.68;;;8.40;99.90;;;;;;5014289;28;20683;-73
2021/04/04 01:58:16;;;;;;;31.77;7.45;;;8.40;99.90;;;;;;4996890;28;20185;-75
2021/04/04 02:00:45;;;;;;;29.50;7.30;;;8.40;99.90;;;;;;4996983;28;20191;-74
2021/04/04 02:03:12;;;;;;;19.85;5.70;;;8.50;99.90;;;;;;5014195;28;20253;-73
2021/04/04 02:05:38;;;;;;;29.23;6.75;;;8.40;99.90;;;;;;5013848;28;20186;-74
2021/04/04 02:08:08;;;;;;;24.55;7.43;;;8.40;99.90;;;;;;5014323;28;20716;-73
2021/04/04 02:10:36;;;;;;;31.05;6.13;;;8.50;99.90;;;;;;5014639;28;20165;-74
2021/04/04 02:13:02;;;;;;;26.02;7.22;;;8.50;99.90;;;;;;4997419;28;20181;-74
2021/04/04 02:15:30;;;;;;;28.08;6.85;;;8.40;99.90;;;;;;4996714;28;20228;-74
2021/04/04 02:17:56;;;;;;;36.78;8.02;;;8.20;99.90;;;;;;4995839;28;20231;-74
2021/04/04 02:20:24;;;;;;;24.88;6.20;;;8.00;99.90;;;;;;5013962;28;20219;-74
2021/04/04 02:22:51;;;;;;;27.80;7.43;;;7.70;99.90;;;;;;5014155;28;20634;-73
2021/04/04 02:25:17;;;;;;;25.63;7.45;;;7.60;99.90;;;;;;5014338;28;20179;-74
2021/04/04 02:27:47;;;;;;;24.23;7.15;;;7.80;99.90;;;;;;5014017;28;20177;-74
2021/04/04 02:30:17;;;;;;;23.27;7.78;;;7.90;99.90;;;;;;5014291;28;20180;-74
2021/04/04 02:32:53;;;;;;;17.27;6.93;;;7.90;99.90;;;;;;5013939;28;20173;-74
2021/04/04 02:35:26;;;;;;;20.55;8.05;;;7.80;99.90;;;;;;5014579;28;20186;-74
2021/04/04 02:37:53;;;;;;;26.95;7.28;;;7.80;99.90;;;;;;4996217;28;20177;-74
2021/04/04 02:40:18;;;;;;;22.75;6.88;;;7.80;99.90;;;;;;4996432;28;20172;-74
2021/04/04 02:42:45;;;;;;;26.05;6.50;;;7.90;99.90;;;;;;4996101;28;20186;-74
2021/04/04 02:45:13;;;;;;;25.35;6.55;;;7.40;99.90;;;;;;5013714;28;20172;-73
2021/04/04 02:48:09;;;;;;;20.90;6.35;;;7.40;99.90;;;;;;5013351;28;20175;-73
2021/04/04 02:50:36;;;;;;;24.97;7.00;;;7.30;99.90;;;;;;5013767;28;20173;-74
2021/04/04 02:53:03;;;;;;;28.23;6.53;;;7.10;99.90;;;;;;4996152;28;20624;-73
2021/04/04 02:55:33;;;;;;;25.27;6.43;;;7.00;99.90;;;;;;5013268;28;20239;-74
2021/04/04 02:58:02;;;;;;;20.97;6.50;;;7.10;99.90;;;;;;4995758;28;20179;-74
2021/04/04 03:00:28;;;;;;;26.53;6.03;;;7.10;99.90;;;;;;4996059;28;20197;-74
2021/04/04 03:02:55;;;;;;;20.17;5.30;;;7.10;99.90;;;;;;5013539;28;20180;-75
2021/04/04 03:05:24;;;;;;;26.73;6.38;;;7.10;99.90;;;;;;5013553;28;20647;-74
2021/04/04 03:07:51;;;;;;;27.25;6.38;;;7.20;99.90;;;;;;5013635;28;20179;-74
2021/04/04 03:10:17;;;;;;;19.15;4.63;;;7.30;99.90;;;;;;4995932;28;20270;-74
2021/04/04 03:12:46;;;;;;;21.05;4.80;;;7.40;99.90;;;;;;5013301;28;20164;-74
2021/04/04 03:15:15;;;;;;;20.73;4.43;;;7.50;99.90;;;;;;5012898;28;20172;-74
2021/04/04 03:17:42;;;;;;;22.25;5.30;;;7.30;99.90;;;;;;4995835;28;20661;-74
2021/04/04 03:20:10;;;;;;;19.93;4.47;;;7.30;99.90;;;;;;5016674;28;20264;-73
2021/04/04 03:22:39;;;;;;;33.75;4.45;;;7.30;99.90;;;;;;5005482;28;20192;-74
2021/04/04 03:25:07;;;;;;;28.63;5.10;;;7.30;99.90;;;;;;5028137;28;20164;-74
2021/04/04 03:27:36;;;;;;;21.55;4.32;;;7.40;99.90;;;;;;5005708;28;20181;-74
2021/04/04 03:30:06;;;;;;;24.73;4.45;;;7.40;99.90;;;;;;4996166;28;20169;-74
2021/04/04 03:32:35;;;;;;;21.50;4.22;;;7.20;99.90;;;;;;5013418;28;20259;-75
2021/04/04 03:35:05;;;;;;;21.53;4.67;;;7.20;99.90;;;;;;5013648;28;20165;-73
2021/04/04 03:37:31;;;;;;;14.25;4.43;;;7.30;99.90;;;;;;4995140;28;20665;-74
2021/04/04 03:39:57;;;;;;;25.65;5.22;;;7.50;99.90;;;;;;4995626;28;20231;-74
2021/04/04 03:42:28;;;;;;;29.35;6.05;;;7.60;99.90;;;;;;5013187;28;20574;-74
2021/04/04 03:44:59;;;;;;;18.42;3.80;;;7.50;99.90;;;;;;5013437;28;20195;-73
2021/04/04 03:47:25;;;;;;;22.25;4.60;;;7.40;99.90;;;;;;5012921;28;20185;-74
2021/04/04 03:49:52;;;;;;;21.27;4.72;;;7.50;99.90;;;;;;5012708;28;20515;-74
2021/04/04 03:52:19;;;;;;;26.25;5.03;;;7.60;99.90;;;;;;4995033;28;20626;-73
2021/04/04 03:54:45;;;;;;;20.52;4.15;;;7.60;99.90;;;;;;4979373;28;20239;-74
2021/04/04 03:57:14;;;;;;;19.00;4.43;;;7.70;99.90;;;;;;5012886;28;20206;-74
2021/04/04 03:59:41;;;;;;;20.33;4.50;;;7.80;99.90;;;;;;5013239;28;20165;-73
2021/04/04 04:02:08;;;;;;;20.17;5.05;;;8.00;99.90;;;;;;4995465;28;20682;-74
2021/04/04 04:04:36;;;;;;;25.58;5.07;;;8.10;99.90;;;;;;5012941;28;20252;-74
2021/04/04 04:07:04;;;;;;;20.25;4.70;;;7.90;99.90;;;;;;5012695;28;20661;-74
2021/04/04 04:09:31;;;;;;;20.85;4.00;;;7.90;99.90;;;;;;4995334;28;20165;-74
2021/04/04 04:11:58;;;;;;;21.65;5.07;;;7.70;99.90;;;;;;4995495;28;20172;-74
2021/04/04 04:14:24;;;;;;;24.45;5.30;;;7.60;99.90;;;;;;5013002;28;20642;-73
2021/04/04 04:16:51;;;;;;;13.80;4.20;;;7.60;99.90;;;;;;5012596;28;20278;-74
2021/04/04 04:19:18;;;;;;;18.20;5.60;;;7.70;99.90;;;;;;5012494;28;20196;-74
2021/04/04 04:21:44;;;;;;;28.67;4.50;;;7.70;99.90;;;;;;4995048;28;20634;-74
2021/04/04 04:24:13;;;;;;;11.07;4.22;;;7.70;99.90;;;;;;5012982;28;20201;-74
2021/04/04 04:26:44;;;;;;;9.93;3.72;;;7.50;99.90;;;;;;5012923;28;20660;-73
2021/04/04 04:29:17;;;;;;;25.77;5.47;;;7.50;99.90;;;;;;5016431;28;20641;-74
2021/04/04 04:31:46;;;;;;;23.25;5.20;;;7.40;99.90;;;;;;4998559;28;20179;-74
2021/04/04 04:34:13;;;;;;;23.27;4.43;;;7.40;99.90;;;;;;5016131;28;20521;-73
2021/04/04 04:36:41;;;;;;;23.65;4.80;;;7.60;99.90;;;;;;5015884;28;20235;-73
2021/04/04 04:39:09;;;;;;;23.50;4.97;;;7.80;99.90;;;;;;5016329;28;20176;-74
2021/04/04 04:41:40;;;;;;;16.25;4.75;;;7.80;99.90;;;;;;5016282;28;20169;-73
2021/04/04 04:44:07;;;;;;;25.80;5.20;;;7.80;99.90;;;;;;5016115;28;20534;-74
2021/04/04 04:46:34;;;;;;;18.90;4.97;;;7.70;99.90;;;;;;4998037;28;20275;-73
2021/04/04 04:49:05;;;;;;;28.52;5.40;;;7.50;99.90;;;;;;4998429;28;20173;-74
2021/04/04 04:51:31;;;;;;;26.45;5.00;;;7.40;99.90;;;;;;5015935;28;20184;-73
2021/04/04 04:53:57;;;;;;;25.35;6.03;;;7.30;99.90;;;;;;4998619;28;20177;-73
2021/04/04 04:56:23;;;;;;;17.17;4.80;;;7.50;99.90;;;;;;5016027;28;20200;-74
2021/04/04 04:58:50;;;;;;;22.17;5.63;;;7.50;99.90;;;;;;5015984;28;20168;-74
2021/04/04 05:01:21;;;;;;;19.35;5.15;;;7.50;99.90;;;;;;5015862;28;20169;-74
2021/04/04 05:03:50;;;;;;;24.33;5.13;;;7.60;99.90;;;;;;5015707;28;20196;-74
2021/04/04 05:06:18;;;;;;;19.17;5.22;;;7.80;99.90;;;;;;4998197;28;20180;-73
2021/04/04 05:08:45;;;;;;;19.05;5.10;;;8.00;99.90;;;;;;5015566;28;20259;-74
2021/04/04 05:11:17;;;;;;;25.52;6.72;;;7.90;99.90;;;;;;4998119;28;20181;-74
2021/04/04 05:13:43;;;;;;;13.85;5.20;;;7.80;99.90;;;;;;4998618;28;20248;-74
2021/04/04 05:16:11;;;;;;;24.80;5.65;;;7.40;99.90;;;;;;4997580;28;20200;-74
2021/04/04 05:18:38;;;;;;;21.33;5.90;;;7.30;99.90;;;;;;5015318;28;20663;-73
2021/04/04 05:21:04;;;;;;;26.92;6.93;;;7.30;99.90;;;;;;5015344;28;20535;-73
2021/04/04 05:23:30;;;;;;;19.45;7.07;;;7.40;99.90;;;;;;4997788;28;20683;-73
2021/04/04 05:25:56;;;;;;;25.10;7.25;;;7.40;99.90;;;;;;4997603;28;20267;-73
2021/04/04 05:28:23;;;;;;;30.00;7.20;;;7.50;99.90;;;;;;4997952;28;20596;-73
2021/04/04 05:30:49;;;;;;;28.08;7.07;;;7.70;99.90;;;;;;4997807;28;20173;-74
2021/04/04 05:33:15;;;;;;;25.33;7.32;;;7.60;99.90;;;;;;5014992;28;20625;-73
2021/04/04 05:35:43;;;;;;;27.50;7.32;;;7.60;99.90;;;;;;4997385;28;20251;-74
2021/04/04 05:38:10;;;;;;;17.23;6.22;;;7.50;99.90;;;;;;5014822;28;20169;-73
2021/04/04 05:40:36;;;;;;;30.55;7.32;;;7.60;99.90;;;;;;5014625;28;20169;-74
2021/04/04 05:43:26;;;;;;;21.73;7.03;;;7.50;99.90;;;;;;5015173;28;20165;-74
2021/04/04 05:46:02;;;;;;;22.55;6.40;;;7.70;99.90;;;;;;5014263;28;20288;-74
2021/04/04 05:48:37;;;;;;;21.83;6.57;;;7.90;99.90;;;;;;5014974;28;20259;-73
2021/04/04 05:51:26;;;;;;;23.00;7.45;;;8.10;99.90;;;;;;5014858;28;20172;-73
2021/04/04 05:54:26;;;;;;;19.83;7.07;;;8.20;99.90;;;;;;5014741;28;20171;-74
2021/04/04 05:57:11;;;;;;;29.17;7.70;;;8.50;99.90;;;;;;4996852;28;20215;-74
2021/04/04 05:59:46;;;;;;;17.15;6.72;;;8.70;99.90;;;;;;5014695;28;20642;-74
2021/04/04 06:02:50;;;;;;;25.15;6.80;;;8.80;99.90;;;;;;4999354;28;20653;-74
2021/04/04 06:05:48;;;;;;;26.13;6.13;;;8.90;99.90;;;;;;5015327;28;20176;-74
2021/04/04 06:08:29;;;;;;;28.00;7.07;;;9.00;99.90;;;;;;4999611;28;20185;-74
2021/04/04 06:11:32;;;;;;;22.35;6.20;;;9.10;99.90;;;;;;4998429;28;20169;-74
2021/04/04 06:14:07;;;;;;;42.70;7.25;;;9.10;99.90;;;;;;5015508;28;20168;-74
2021/04/04 06:16:51;;;;;;;36.33;7.35;;;9.10;99.90;;;;;;4997339;28;20266;-74
2021/04/04 06:19:42;;;;;;;17.77;6.97;;;9.20;99.90;;;;;;5015420;28;20177;-74
2021/04/04 06:22:55;;;;;;;22.58;6.45;;;9.20;99.90;;;;;;5014193;28;20664;-75
2021/04/04 06:25:45;;;;;;;31.25;8.10;;;9.30;99.90;;;;;;4940324;28;20188;-76
2021/04/04 06:28:39;;;;;;;24.10;7.18;;;9.20;99.90;;;;;;4997771;28;20637;-74
2021/04/04 06:31:24;;;;;;;22.88;6.20;;;9.40;99.90;;;;;;5013076;28;20168;-74
2021/04/04 06:34:01;;;;;;;23.58;7.15;;;9.60;99.90;;;;;;5013983;28;20172;-75
2021/04/04 06:36:45;;;;;;;23.38;7.85;;;9.70;99.90;;;;;;5013563;28;20200;-74
2021/04/04 06:39:31;;;;;;;36.53;8.65;;;9.80;99.90;;;;;;5013984;28;20173;-75
2021/04/04 06:42:14;;;;;;;40.58;7.80;;;9.90;99.90;;;;;;4996365;28;20174;-74
2021/04/04 06:45:04;;;;;;;21.50;6.95;;;10.10;99.90;;;;;;4996304;28;20176;-74
2021/04/04 06:48:14;;;;;;;21.00;6.93;;;10.10;99.90;;;;;;4994331;28;20578;-74
2021/04/04 06:50:49;;;;;;;25.02;6.95;;;10.20;99.90;;;;;;4974182;28;20216;-74
2021/04/04 06:53:38;;;;;;;15.60;6.65;;;10.10;99.90;;;;;;4994241;28;20164;-74
2021/04/04 06:56:14;;;;;;;23.05;6.53;;;10.00;99.90;;;;;;5001826;28;20205;-75
2021/04/04 06:58:49;;;;;;;25.08;7.32;;;10.00;99.90;;;;;;5013153;28;20498;-74
2021/04/04 07:01:24;;;;;;;20.45;6.63;;;10.00;99.90;;;;;;5013244;28;20303;-74
2021/04/04 07:04:01;;;;;;;29.02;8.48;;;10.20;99.90;;;;;;4995708;28;20249;-75
2021/04/04 07:06:26;;;;;;;24.25;7.25;;;10.30;99.90;;;;;;5013408;28;20185;-75
2021/04/04 07:09:13;;;;;;;25.67;7.43;;;10.40;99.90;;;;;;5012773;28;20175;-74
2021/04/04 07:11:51;;;;;;;26.67;7.20;;;10.40;99.90;;;;;;4995823;28;20176;-74
2021/04/04 07:14:41;;;;;;;34.42;11.48;;;10.40;99.90;;;;;;5013418;28;20196;-75
2021/04/04 07:17:26;;;;;;;25.77;9.38;;;10.10;99.90;;;;;;5017272;28;20196;-74
2021/04/04 07:20:23;;;;;;;25.85;7.13;;;9.50;99.90;;;;;;5014489;28;20189;-73
2021/04/04 07:23:18;;;;;;;31.35;8.25;;;9.00;99.90;;;;;;5014177;28;20544;-74
2021/04/04 07:26:02;;;;;;;33.00;8.38;;;9.30;99.90;;;;;;5012575;28;20611;-74
2021/04/04 07:28:52;;;;;;;28.70;8.25;;;9.60;99.90;;;;;;5012799;28;20222;-75
2021/04/04 07:31:26;;;;;;;28.92;8.25;;;10.10;99.90;;;;;;5008462;28;20176;-75
2021/04/04 07:34:15;;;;;;;26.60;9.02;;;10.40;99.90;;;;;;4996803;28;20176;-74
2021/04/04 07:37:08;;;;;;;31.98;8.55;;;10.60;99.90;;;;;;5013493;28;20188;-74
2021/04/04 07:39:45;;;;;;;37.53;8.80;;;10.60;99.90;;;;;;4996023;28;20180;-74
2021/04/04 07:42:48;;;;;;;27.35;11.13;;;10.70;99.90;;;;;;5011231;28;20173;-73
2021/04/04 07:45:29;;;;;;;29.85;13.82;;;11.00;99.90;;;;;;4992407;28;20252;-73
2021/04/04 07:48:16;;;;;;;34.45;11.88;;;11.00;99.90;;;;;;5013560;28;20169;-74
2021/04/04 07:50:55;;;;;;;34.03;12.57;;;11.00;99.90;;;;;;5013001;28;20179;-74
2021/04/04 07:53:33;;;;;;;35.78;12.15;;;11.10;99.90;;;;;;5013061;28;20199;-74
2021/04/04 07:56:20;;;;;;;25.55;11.57;;;11.20;99.90;;;;;;4998862;28;20250;-74
2021/04/04 07:59:23;;;;;;;39.10;12.70;;;11.30;99.90;;;;;;5014262;28;20165;-74
2021/04/04 08:02:14;;;;;;;41.47;13.80;;;11.50;99.90;;;;;;5014235;28;20169;-75
2021/04/04 08:04:48;;;;;;;34.67;13.70;;;11.70;99.90;;;;;;5008252;28;20173;-76
2021/04/04 08:07:18;;;;;;;26.48;14.68;;;11.60;99.90;;;;;;5017791;28;20314;-75
2021/04/04 08:10:07;;;;;;;38.63;15.23;;;11.50;99.90;;;;;;5017602;28;20306;-76
2021/04/04 08:12:47;;;;;;;38.92;16.33;;;11.30;99.90;;;;;;4999633;28;20179;-76
2021/04/04 08:15:24;;;;;;;32.30;14.77;;;11.50;99.90;;;;;;5017828;28;20255;-75
2021/04/04 08:17:49;;;;;;;39.72;15.23;;;11.00;99.90;;;;;;5017560;28;20177;-76
2021/04/04 08:20:36;;;;;;;39.10;14.07;;;10.90;99.90;;;;;;4999525;28;20169;-75
2021/04/04 08:23:09;;;;;;;37.03;13.63;;;11.10;99.90;;;;;;5016413;28;20169;-75
2021/04/04 08:25:40;;;;;;;40.78;15.82;;;11.30;99.90;;;;;;4998894;28;20667;-75
2021/04/04 08:28:31;;;;;;;38.58;15.98;;;11.40;99.90;;;;;;4999075;28;20169;-75
2021/04/04 08:31:09;;;;;;;40.88;16.88;;;11.30;99.90;;;;;;5016511;28;20303;-75
2021/04/04 08:33:40;;;;;;;37.97;17.50;;;11.50;99.90;;;;;;5016214;28;20165;-75
2021/04/04 08:36:08;;;;;;;37.00;15.77;;;11.80;99.90;;;;;;4998282;28;20228;-76
2021/04/04 08:38:40;;;;;;;33.72;16.38;;;11.90;99.90;;;;;;5015974;28;20184;-75
2021/04/04 08:41:07;;;;;;;37.97;16.50;;;11.80;99.90;;;;;;5016284;28;20172;-76
2021/04/04 08:43:36;;;;;;;38.05;17.38;;;11.70;99.90;;;;;;4998658;28;20172;-75
2021/04/04 08:46:19;;;;;;;36.17;19.42;;;11.80;99.90;;;;;;4998513;28;20181;-75
2021/04/04 08:48:45;;;;;;;38.33;17.55;;;11.90;99.90;;;;;;5016271;28;20173;-75
2021/04/04 08:51:14;;;;;;;38.33;17.95;;;11.90;99.90;;;;;;4998321;28;20728;-75
2021/04/04 08:53:44;;;;;;;34.50;18.73;;;12.00;99.90;;;;;;4998375;28;20173;-75
2021/04/04 08:56:13;;;;;;;33.95;17.77;;;11.50;99.90;;;;;;5015912;28;20649;-75
2021/04/04 08:58:41;;;;;;;32.80;17.85;;;11.30;99.90;;;;;;5015849;28;20177;-75
2021/04/04 09:01:13;;;;;;;49.75;18.85;;;11.20;99.90;;;;;;4998475;28;20168;-75
2021/04/04 09:03:47;;;;;;;44.58;18.20;;;11.40;99.90;;;;;;4998179;28;20173;-75
2021/04/04 09:06:13;;;;;;;39.65;17.92;;;11.30;99.90;;;;;;4997946;28;20189;-75
2021/04/04 09:08:42;;;;;;;47.17;19.08;;;11.10;99.90;;;;;;5015953;28;20181;-76
2021/04/04 09:11:10;;;;;;;45.38;18.38;;;11.10;99.90;;;;;;4981676;28;20607;-75
2021/04/04 09:13:36;;;;;;;53.80;25.73;;;11.20;99.90;;;;;;4997012;28;20169;-75
2021/04/04 09:16:11;;;;;;;39.00;18.10;;;11.30;99.90;;;;;;5015590;28;20197;-76
2021/04/04 09:18:45;;;;;;;34.58;19.13;;;11.10;99.90;;;;;;5015684;28;20165;-75
2021/04/04 09:21:11;;;;;;;44.40;18.75;;;11.10;99.90;;;;;;5015688;28;20196;-75
2021/04/04 09:23:38;;;;;;;48.67;20.08;;;11.20;99.90;;;;;;5016000;28;20533;-75
2021/04/04 09:26:08;;;;;;;36.15;18.50;;;11.10;99.90;;;;;;5018082;28;20169;-75
2021/04/04 09:28:37;;;;;;;37.47;19.52;;;11.40;99.90;;;;;;5018874;28;20181;-75
2021/04/04 09:31:04;;;;;;;31.33;18.08;;;11.50;99.90;;;;;;5017289;28;20165;-75
2021/04/04 09:33:37;;;;;;;34.35;17.45;;;11.60;99.90;;;;;;5015034;28;20184;-76
2021/04/04 09:36:06;;;;;;;37.47;18.00;;;10.90;99.90;;;;;;4997569;28;20684;-75
2021/04/04 09:38:37;;;;;;;30.85;17.70;;;11.30;99.90;;;;;;5015680;28;20165;-75
2021/04/04 09:41:05;;;;;;;37.85;16.63;;;11.70;99.90;;;;;;5015300;28;20179;-75
2021/04/04 09:43:45;;;;;;;34.58;16.90;;;12.20;99.90;;;;;;5015245;28;20208;-76
2021/04/04 09:46:11;;;;;;;42.78;17.13;;;12.50;99.90;;;;;;5015298;28;20171;-75
2021/04/04 09:48:41;;;;;;;33.63;17.83;;;12.50;99.90;;;;;;4997374;28;20204;-75
2021/04/04 09:51:16;;;;;;;35.08;16.90;;;12.30;99.90;;;;;;5015118;28;20173;-76
2021/04/04 09:53:44;;;;;;;36.65;17.33;;;12.20;99.90;;;;;;4997422;28;20168;-75
2021/04/04 09:56:15;;;;;;;27.90;17.10;;;12.00;99.90;;;;;;5014873;28;20223;-75
2021/04/04 09:58:48;;;;;;;26.90;17.27;;;11.80;99.90;;;;;;5014720;28;20175;-75
2021/04/04 10:01:22;;;;;;;28.95;16.08;;;12.00;99.90;;;;;;4997159;28;20545;-75
2021/04/04 10:04:05;;;;;;;26.90;14.90;;;12.30;99.90;;;;;;5014243;28;20183;-75
2021/04/04 10:06:33;;;;;;;34.08;14.38;;;12.70;99.90;;;;;;4981172;28;20561;-77
2021/04/04 10:09:05;;;;;;;29.50;14.95;;;12.90;99.90;;;;;;5014669;28;20164;-75
2021/04/04 10:11:32;;;;;;;31.85;13.73;;;12.50;99.90;;;;;;4996486;28;20572;-75
2021/04/04 10:14:15;;;;;;;31.45;15.43;;;12.70;99.90;;;;;;5014611;28;20621;-75
2021/04/04 10:16:41;;;;;;;28.80;13.43;;;13.00;99.90;;;;;;5014725;28;20231;-75
2021/04/04 10:19:12;;;;;;;48.40;15.20;;;13.00;99.90;;;;;;5014462;28;20204;-74
2021/04/04 10:21:40;;;;;;;32.20;15.02;;;13.00;99.90;;;;;;5014560;28;20188;-76
2021/04/04 10:24:24;;;;;;;28.05;13.82;;;12.90;99.90;;;;;;5014916;28;20164;-75
2021/04/04 10:27:23;;;;;;;29.95;13.90;;;12.50;99.90;;;;;;5014800;28;20187;-75
2021/04/04 10:30:01;;;;;;;20.60;12.75;;;12.70;99.90;;;;;;5013247;28;20168;-76
2021/04/04 10:32:27;;;;;;;29.80;12.18;;;13.10;99.90;;;;;;5013857;28;20242;-76
2021/04/04 10:34:53;;;;;;;30.27;12.80;;;12.90;99.90;;;;;;5014375;28;20248;-75
2021/04/04 10:37:25;;;;;;;23.92;11.50;;;12.90;99.90;;;;;;4996597;28;20288;-76
2021/04/04 10:40:02;;;;;;;26.00;11.20;;;13.20;99.90;;;;;;5013746;28;20259;-75
2021/04/04 10:42:28;;;;;;;34.78;11.98;;;13.70;99.90;;;;;;4996046;28;20211;-76
2021/04/04 10:45:18;;;;;;;22.73;10.77;;;13.50;99.90;;;;;;5011424;28;20641;-75
2021/04/04 10:47:44;;;;;;;17.17;10.52;;;13.70;99.90;;;;;;4994054;28;20260;-75
2021/04/04 10:50:14;;;;;;;25.48;10.82;;;13.80;99.90;;;;;;5011241;28;20657;-76
2021/04/04 10:52:42;;;;;;;24.77;11.63;;;13.60;99.90;;;;;;5013751;28;20639;-75
2021/04/04 10:55:10;;;;;;;21.90;11.77;;;13.20;99.90;;;;;;4995549;28;20181;-76
2021/04/04 10:57:37;;;;;;;19.92;10.65;;;13.50;99.90;;;;;;4995430;28;20586;-76
2021/04/04 11:00:09;;;;;;;26.42;11.68;;;13.80;99.90;;;;;;4996102;28;20180;-75
2021/04/04 11:02:37;;;;;;;23.38;12.23;;;13.70;99.90;;;;;;5013456;28;20172;-75
2021/04/04 11:05:04;;;;;;;19.02;11.98;;;13.70;99.90;;;;;;5013159;28;20625;-76
2021/04/04 11:07:32;;;;;;;25.98;11.80;;;13.80;99.90;;;;;;4994534;28;20204;-76
2021/04/04 11:09:57;;;;;;;24.30;12.13;;;14.10;99.90;;;;;;5006813;28;20184;-76
2021/04/04 11:12:25;;;;;;;19.60;12.63;;;14.10;99.90;;;;;;5010887;28;20181;-76
2021/04/04 11:14:53;;;;;;;20.55;12.85;;;14.70;99.90;;;;;;5012307;28;20266;-76
2021/04/04 11:17:21;;;;;;;24.15;12.57;;;15.00;99.90;;;;;;5012995;28;20197;-75
2021/04/04 11:19:49;;;;;;;26.90;11.98;;;14.80;99.90;;;;;;5013400;28;20175;-76
2021/04/04 11:22:19;;;;;;;23.50;12.38;;;14.30;99.90;;;;;;5008851;28;20180;-78
2021/04/04 11:24:58;;;;;;;24.70;12.35;;;14.40;99.90;;;;;;5013046;28;20641;-76
2021/04/04 11:27:48;;;;;;;21.70;12.50;;;14.30;99.90;;;;;;5013027;28;20187;-76
2021/04/04 11:30:23;;;;;;;21.63;10.43;;;14.50;99.90;;;;;;4995320;28;20769;-77
2021/04/04 11:33:19;;;;;;;23.63;11.43;;;14.50;99.90;;;;;;4995447;28;20262;-76
2021/04/04 11:36:12;;;;;;;30.85;12.25;;;14.20;99.90;;;;;;5012991;28;20264;-76
2021/04/04 11:39:03;;;;;;;19.88;10.88;;;14.00;99.90;;;;;;5014355;28;20188;-76
2021/04/04 11:41:29;;;;;;;20.80;11.00;;;14.30;99.90;;;;;;5009608;28;20188;-76
2021/04/04 11:44:15;;;;;;;21.55;10.68;;;14.40;99.90;;;;;;5016940;28;20171;-76
2021/04/04 11:46:49;;;;;;;19.58;10.50;;;14.50;99.90;;;;;;4999082;28;20176;-76
2021/04/04 11:49:30;;;;;;;20.52;9.40;;;14.70;99.90;;;;;;4999060;28;20176;-77
2021/04/04 11:52:20;;;;;;;19.92;10.27;;;14.60;99.90;;;;;;5014969;28;20180;-76
2021/04/04 11:54:47;;;;;;;14.55;9.25;;;14.10;99.90;;;;;;4989477;28;20276;-77
2021/04/04 11:57:13;;;;;;;16.33;8.07;;;14.10;99.90;;;;;;5002757;28;20192;-76
2021/04/04 11:59:39;;;;;;;14.18;7.40;;;14.30;99.90;;;;;;5016475;28;20173;-76
2021/04/04 12:02:05;;;;;;;20.25;8.77;;;14.70;99.90;;;;;;4998770;28;20180;-76
2021/04/04 12:04:47;;;;;;;27.67;8.55;;;14.80;99.90;;;;;;5016455;28;20173;-76
2021/04/04 12:07:18;;;;;;;17.40;8.23;;;14.40;99.90;;;;;;5016312;28;20184;-77
2021/04/04 12:09:48;;;;;;;23.15;8.65;;;14.50;99.90;;;;;;5016444;28;20172;-76
2021/04/04 12:12:14;;;;;;;16.88;7.88;;;14.40;99.90;;;;;;4998791;28;20168;-76
2021/04/04 12:14:57;;;;;;;23.77;8.18;;;14.30;99.90;;;;;;5015775;28;20634;-76
2021/04/04 12:17:25;;;;;;;22.88;8.60;;;14.20;99.90;;;;;;5015502;28;20204;-76
2021/04/04 12:19:51;;;;;;;19.75;8.50;;;14.50;99.90;;;;;;4998622;28;20177;-76
2021/04/04 12:22:18;;;;;;;12.55;7.30;;;14.70;99.90;;;;;;4999284;28;20568;-76
2021/04/04 12:24:52;;;;;;;22.02;7.78;;;14.50;99.90;;;;;;4999257;28;20420;-76
2021/04/04 12:27:21;;;;;;;12.88;7.32;;;14.20;99.90;;;;;;4999210;28;20252;-76
2021/04/04 12:29:47;;;;;;;13.98;8.30;;;14.20;99.90;;;;;;5016601;28;20643;-75
2021/04/04 12:32:20;;;;;;;18.55;7.53;;;14.30;99.90;;;;;;5016138;28;20173;-76
2021/04/04 12:34:47;;;;;;;20.63;7.68;;;14.30;99.90;;;;;;4998696;28;20540;-77
2021/04/04 12:37:14;;;;;;;17.85;7.28;;;14.20;99.90;;;;;;5016247;28;20223;-76
2021/04/04 12:39:41;;;;;;;21.38;6.65;;;13.80;99.90;;;;;;5016487;28;20179;-75
2021/04/04 12:42:09;;;;;;;20.10;7.07;;;14.00;99.90;;;;;;4982041;28;20177;-76
2021/04/04 12:44:36;;;;;;;21.50;7.55;;;14.30;99.90;;;;;;4998754;28;20235;-76
2021/04/04 12:47:25;;;;;;;27.52;7.85;;;14.40;99.90;;;;;;4997983;28;21935;-76
2021/04/04 12:49:59;;;;;;;12.98;7.25;;;14.20;99.90;;;;;;5015862;28;20165;-76
2021/04/04 12:52:34;;;;;;;18.77;7.53;;;14.30;99.90;;;;;;4998464;28;20259;-76
2021/04/04 12:55:32;;;;;;;18.65;7.75;;;14.40;99.90;;;;;;5016126;28;20184;-75
2021/04/04 12:58:01;;;;;;;15.98;6.57;;;14.30;99.90;;;;;;5000937;28;20201;-76
2021/04/04 13:00:32;;;;;;;21.33;7.32;;;14.20;99.90;;;;;;5016013;28;20157;-76
2021/04/04 13:03:03;;;;;;;16.65;7.00;;;14.60;99.90;;;;;;5014339;28;20267;-77
2021/04/04 13:05:34;;;;;;;17.10;7.53;;;14.60;99.90;;;;;;5011926;28;20179;-77
2021/04/04 13:08:00;;;;;;;19.27;6.97;;;14.40;99.90;;;;;;4990195;28;20177;-76